createdAt,value
2018-11-01T00:00:50.989Z,7.20
2018-11-01T00:03:19.779Z,7.20
2018-11-01T00:05:48.303Z,7.10
2018-11-01T00:08:17.452Z,7.10
2018-11-01T00:10:45.902Z,7.10
2018-11-01T00:13:14.627Z,7.00
2018-11-01T00:18:13.283Z,7.00
2018-11-01T00:20:41.651Z,7.00
2018-11-01T00:23:10.012Z,7.10
2018-11-01T00:25:38.393Z,7.10
2018-11-01T00:28:07.907Z,7.10
2018-11-01T00:30:36.858Z,7.30
2018-11-01T00:33:05.795Z,7.30
2018-11-01T00:35:34.274Z,7.20
2018-11-01T00:40:31.964Z,7.10
2018-11-01T00:43:00.549Z,7.00
2018-11-01T00:47:59.344Z,7.00
2018-11-01T00:50:28.122Z,7.10
2018-11-01T00:52:56.562Z,7.10
2018-11-01T00:55:25.813Z,7.10
2018-11-01T00:57:54.282Z,7.10
2018-11-01T01:00:22.798Z,7.20
2018-11-01T01:02:51.456Z,7.20
2018-11-01T01:05:20.829Z,7.10
2018-11-01T01:07:49.311Z,7.10
2018-11-01T01:10:18.181Z,7.10
2018-11-01T01:12:47.876Z,7.00
2018-11-01T01:15:16.827Z,6.90
2018-11-01T01:17:45.593Z,6.90
2018-11-01T01:20:15.428Z,6.90
2018-11-01T01:22:45.208Z,6.90
2018-11-01T01:25:14.951Z,7.00
2018-11-01T01:27:43.296Z,6.90
2018-11-01T01:30:15.469Z,6.90
2018-11-01T01:32:44.303Z,7.00
2018-11-01T01:35:13.110Z,6.90
2018-11-01T01:37:42.077Z,6.90
2018-11-01T01:40:11.209Z,6.90
2018-11-01T01:42:45.291Z,7.30
2018-11-01T01:45:14.676Z,6.80
2018-11-01T01:47:43.056Z,6.80
2018-11-01T01:50:13.302Z,6.70
2018-11-01T01:52:42.423Z,6.70
2018-11-01T01:55:14.342Z,6.60
2018-11-01T01:57:43.300Z,6.60
2018-11-01T02:00:14.560Z,6.60
2018-11-01T02:02:45.647Z,6.50
2018-11-01T02:05:14.376Z,6.40
2018-11-01T02:07:42.749Z,6.50
2018-11-01T02:10:13.339Z,6.40
2018-11-01T02:12:42.000Z,6.50
2018-11-01T02:15:13.540Z,6.50
2018-11-01T02:17:42.394Z,6.40
2018-11-01T02:20:14.269Z,6.40
2018-11-01T02:22:43.631Z,6.40
2018-11-01T02:25:12.620Z,6.50
2018-11-01T02:27:46.670Z,6.50
2018-11-01T02:30:16.385Z,6.40
2018-11-01T02:32:45.523Z,6.40
2018-11-01T02:35:16.007Z,6.30
2018-11-01T02:37:44.899Z,6.30
2018-11-01T02:40:13.884Z,6.30
2018-11-01T02:42:43.848Z,6.30
2018-11-01T02:45:13.199Z,6.20
2018-11-01T02:47:42.216Z,6.20
2018-11-01T02:50:11.489Z,6.20
2018-11-01T02:52:40.877Z,6.10
2018-11-01T02:55:09.952Z,6.00
2018-11-01T02:57:39.528Z,6.00
2018-11-01T03:00:11.263Z,6.00
2018-11-01T03:02:40.695Z,5.90
2018-11-01T03:05:10.376Z,5.90
2018-11-01T03:07:39.048Z,6.10
2018-11-01T03:10:10.977Z,6.10
2018-11-01T03:12:39.921Z,6.10
2018-11-01T03:15:11.264Z,6.10
2018-11-01T03:17:39.752Z,6.20
2018-11-01T03:20:09.304Z,6.20
2018-11-01T03:22:38.027Z,6.10
2018-11-01T03:25:08.344Z,6.10
2018-11-01T03:27:37.310Z,6.00
2018-11-01T03:32:34.912Z,6.00
2018-11-01T03:35:03.914Z,6.10
2018-11-01T03:37:32.569Z,6.10
2018-11-01T03:40:01.005Z,6.00
2018-11-01T03:42:29.411Z,6.10
2018-11-01T03:44:58.370Z,6.00
2018-11-01T03:47:26.884Z,6.00
2018-11-01T03:49:55.912Z,6.10
2018-11-01T03:52:24.366Z,6.10
2018-11-01T03:54:53.020Z,6.00
2018-11-01T03:57:21.403Z,5.90
2018-11-01T03:59:50.148Z,6.40
2018-11-01T04:02:19.065Z,6.30
2018-11-01T04:04:47.627Z,5.90
2018-11-01T04:07:16.010Z,5.90
2018-11-01T04:09:45.079Z,5.80
2018-11-01T04:12:14.145Z,5.80
2018-11-01T04:14:42.961Z,5.70
2018-11-01T04:17:13.800Z,5.80
2018-11-01T04:19:42.495Z,5.80
2018-11-01T04:22:11.144Z,5.80
2018-11-01T04:24:39.818Z,5.80
2018-11-01T04:27:08.264Z,5.90
2018-11-01T04:29:37.324Z,6.10
2018-11-01T04:32:05.819Z,6.10
2018-11-01T04:34:34.232Z,6.00
2018-11-01T04:37:03.127Z,5.90
2018-11-01T04:39:31.821Z,5.90
2018-11-01T04:42:00.354Z,6.00
2018-11-01T04:44:31.491Z,5.90
2018-11-01T04:47:02.383Z,6.20
2018-11-01T04:49:33.193Z,6.10
2018-11-01T04:52:03.947Z,6.10
2018-11-01T04:54:34.518Z,6.20
2018-11-01T04:57:04.447Z,6.30
2018-11-01T04:59:35.393Z,6.30
2018-11-01T05:02:04.136Z,6.30
2018-11-01T05:04:32.714Z,6.40
2018-11-01T05:07:01.078Z,6.40
2018-11-01T05:09:29.436Z,6.40
2018-11-01T05:11:57.893Z,6.40
2018-11-01T05:14:26.880Z,6.30
2018-11-01T05:16:55.213Z,6.10
2018-11-01T05:19:24.223Z,6.10
2018-11-01T05:21:53.142Z,6.30
2018-11-01T05:24:22.666Z,5.70
2018-11-01T05:26:51.079Z,5.90
2018-11-01T05:29:19.495Z,5.80
2018-11-01T05:31:48.356Z,5.80
2018-11-01T05:34:17.091Z,5.80
2018-11-01T05:36:45.556Z,5.70
2018-11-01T05:39:14.207Z,5.80
2018-11-01T05:41:43.488Z,5.80
2018-11-01T05:44:12.871Z,5.90
2018-11-01T05:46:41.951Z,5.90
2018-11-01T05:49:10.696Z,6.00
2018-11-01T05:51:39.720Z,6.20
2018-11-01T05:54:08.346Z,6.30
2018-11-01T05:56:36.799Z,6.40
2018-11-01T05:59:06.076Z,6.40
2018-11-01T06:01:36.235Z,6.40
2018-11-01T06:04:04.649Z,6.20
2018-11-01T06:06:32.991Z,6.50
2018-11-01T06:09:04.421Z,6.60
2018-11-01T06:11:32.911Z,6.60
2018-11-01T06:14:01.365Z,6.50
2018-11-01T06:16:29.971Z,6.50
2018-11-01T06:19:01.674Z,6.40
2018-11-01T06:21:30.740Z,6.30
2018-11-01T06:23:59.347Z,6.40
2018-11-01T06:26:28.003Z,6.40
2018-11-01T06:28:57.088Z,6.50
2018-11-01T06:31:26.018Z,6.50
2018-11-01T06:33:55.045Z,6.50
2018-11-01T06:36:23.369Z,6.90
2018-11-01T06:38:52.557Z,6.40
2018-11-01T06:41:21.280Z,6.20
2018-11-01T06:43:50.175Z,6.20
2018-11-01T06:46:18.851Z,6.30
2018-11-01T06:48:47.504Z,5.90
2018-11-01T06:51:15.941Z,6.40
2018-11-01T06:53:44.399Z,6.40
2018-11-01T06:56:12.763Z,6.60
2018-11-01T06:58:41.510Z,6.60
2018-11-01T07:01:09.840Z,6.70
2018-11-01T07:03:41.250Z,6.70
2018-11-01T07:06:09.712Z,6.60
2018-11-01T07:11:06.713Z,6.50
2018-11-01T07:13:35.110Z,6.50
2018-11-01T07:16:03.856Z,6.70
2018-11-01T07:18:32.370Z,6.60
2018-11-01T07:21:01.485Z,6.80
2018-11-01T07:23:29.891Z,6.90
2018-11-01T07:25:58.705Z,6.80
2018-11-01T07:28:27.091Z,7.00
2018-11-01T07:30:55.583Z,7.00
2018-11-01T07:33:23.930Z,6.80
2018-11-01T07:35:52.589Z,6.80
2018-11-01T07:38:21.372Z,6.90
2018-11-01T07:40:50.306Z,6.90
2018-11-01T07:43:19.056Z,6.80
2018-11-01T07:45:47.940Z,6.80
2018-11-01T07:48:16.318Z,7.00
2018-11-01T07:50:44.785Z,7.30
2018-11-01T07:53:13.187Z,7.30
2018-11-01T07:55:41.519Z,7.10
2018-11-01T07:58:10.042Z,7.30
2018-11-01T08:00:38.826Z,7.40
2018-11-01T08:03:07.251Z,7.30
2018-11-01T08:05:35.693Z,7.40
2018-11-01T08:08:04.026Z,7.30
2018-11-01T08:10:33.053Z,7.20
2018-11-01T08:13:03.746Z,7.10
2018-11-01T08:15:32.360Z,7.30
2018-11-01T08:18:02.619Z,7.30
2018-11-01T08:20:31.191Z,7.40
2018-11-01T08:23:00.614Z,7.40
2018-11-01T08:25:29.151Z,7.60
2018-11-01T08:27:57.886Z,7.60
2018-11-01T08:30:26.626Z,7.80
2018-11-01T08:32:55.109Z,8.00
2018-11-01T08:35:23.645Z,8.20
2018-11-01T08:37:52.380Z,8.40
2018-11-01T08:40:21.031Z,8.10
2018-11-01T08:42:49.387Z,8.20
2018-11-01T08:45:18.133Z,8.30
2018-11-01T08:47:46.941Z,8.40
2018-11-01T08:50:18.672Z,8.40
2018-11-01T08:52:47.053Z,8.70
2018-11-01T08:55:15.469Z,8.70
2018-11-01T08:57:45.192Z,8.90
2018-11-01T09:00:14.248Z,8.70
2018-11-01T09:02:43.248Z,8.70
2018-11-01T09:05:13.540Z,8.70
2018-11-01T09:07:43.699Z,8.70
2018-11-01T09:10:13.896Z,8.90
2018-11-01T09:12:42.473Z,8.60
2018-11-01T09:15:12.696Z,8.80
2018-11-01T09:17:42.349Z,8.60
2018-11-01T09:20:11.612Z,8.60
2018-11-01T09:22:41.828Z,8.70
2018-11-01T09:25:10.632Z,8.80
2018-11-01T09:27:39.089Z,8.70
2018-11-01T09:30:11.302Z,8.80
2018-11-01T09:32:40.432Z,8.70
2018-11-01T09:35:09.630Z,8.80
2018-11-01T09:37:39.361Z,8.70
2018-11-01T09:40:10.084Z,8.60
2018-11-01T09:42:38.701Z,8.40
2018-11-01T09:45:07.691Z,8.40
2018-11-01T09:47:36.687Z,8.50
2018-11-01T09:50:06.808Z,8.40
2018-11-01T09:52:35.866Z,8.70
2018-11-01T09:55:04.908Z,8.70
2018-11-01T09:57:33.450Z,8.80
2018-11-01T10:00:02.268Z,8.80
2018-11-01T10:02:30.692Z,9.00
2018-11-01T10:04:59.633Z,9.20
2018-11-01T10:07:29.121Z,9.30
2018-11-01T10:09:57.926Z,9.50
2018-11-01T10:12:27.063Z,9.70
2018-11-01T10:14:56.060Z,9.90
2018-11-01T10:17:24.933Z,10.00
2018-11-01T10:19:52.985Z,10.00
2018-11-01T10:22:21.416Z,10.00
2018-11-01T10:24:50.190Z,10.10
2018-11-01T10:27:19.975Z,10.20
2018-11-01T10:29:47.734Z,10.60
2018-11-01T10:32:16.324Z,10.90
2018-11-01T10:34:44.801Z,11.20
2018-11-01T10:37:13.232Z,11.50
2018-11-01T10:39:43.232Z,11.30
2018-11-01T10:42:12.266Z,11.20
2018-11-01T10:44:40.677Z,11.40
2018-11-01T10:47:10.396Z,11.40
2018-11-01T10:49:38.772Z,11.50
2018-11-01T10:52:07.174Z,11.40
2018-11-01T10:54:35.937Z,11.20
2018-11-01T10:57:04.417Z,11.20
2018-11-01T10:59:32.973Z,11.30
2018-11-01T11:02:07.073Z,11.30
2018-11-01T11:04:35.755Z,11.40
2018-11-01T11:07:04.717Z,11.50
2018-11-01T11:09:33.248Z,11.40
2018-11-01T11:12:02.871Z,11.60
2018-11-01T11:14:31.894Z,11.70
2018-11-01T11:17:00.729Z,11.90
2018-11-01T11:19:29.078Z,12.00
2018-11-01T11:21:57.584Z,12.10
2018-11-01T11:24:26.205Z,12.10
2018-11-01T11:26:54.886Z,12.30
2018-11-01T11:29:23.335Z,12.30
2018-11-01T11:31:52.040Z,12.50
2018-11-01T11:34:20.887Z,12.90
2018-11-01T11:36:49.524Z,12.90
2018-11-01T11:39:18.046Z,13.10
2018-11-01T11:41:46.321Z,13.20
2018-11-01T11:44:14.748Z,13.20
2018-11-01T11:46:43.197Z,13.50
2018-11-01T11:49:11.691Z,13.50
2018-11-01T11:54:09.265Z,13.50
2018-11-01T11:56:37.641Z,13.40
2018-11-01T11:59:06.468Z,13.30
2018-11-01T12:01:34.880Z,13.30
2018-11-01T12:04:04.283Z,13.40
2018-11-01T12:06:32.940Z,13.40
2018-11-01T12:09:02.495Z,13.50
2018-11-01T12:11:30.923Z,13.60
2018-11-01T12:13:59.889Z,13.60
2018-11-01T12:16:28.602Z,13.70
2018-11-01T12:18:57.173Z,14.00
2018-11-01T12:21:25.607Z,14.20
2018-11-01T12:23:54.404Z,14.20
2018-11-01T12:26:22.781Z,14.30
2018-11-01T12:28:51.196Z,14.30
2018-11-01T12:31:19.874Z,14.30
2018-11-01T12:33:48.291Z,14.40
2018-11-01T12:36:16.789Z,14.40
2018-11-01T12:38:45.270Z,14.90
2018-11-01T12:41:13.916Z,15.30
2018-11-01T12:43:42.316Z,15.80
2018-11-01T12:46:11.545Z,15.80
2018-11-01T12:48:39.958Z,16.10
2018-11-01T12:51:08.341Z,15.30
2018-11-01T12:53:36.821Z,15.10
2018-11-01T12:56:05.603Z,15.00
2018-11-01T12:58:33.985Z,15.20
2018-11-01T13:01:02.478Z,15.40
2018-11-01T13:03:31.362Z,15.20
2018-11-01T13:05:59.826Z,14.90
2018-11-01T13:08:28.334Z,14.90
2018-11-01T13:10:58.576Z,15.10
2018-11-01T13:13:27.490Z,15.20
2018-11-01T13:15:55.919Z,16.10
2018-11-01T13:18:24.527Z,16.70
2018-11-01T13:20:53.464Z,17.80
2018-11-01T13:23:22.032Z,17.60
2018-11-01T13:25:50.447Z,18.40
2018-11-01T13:28:18.869Z,18.40
2018-11-01T13:30:47.545Z,19.00
2018-11-01T13:33:16.285Z,19.00
2018-11-01T13:35:45.529Z,19.40
2018-11-01T13:38:14.192Z,19.70
2018-11-01T13:40:44.754Z,19.40
2018-11-01T13:43:12.901Z,19.40
2018-11-01T13:45:41.300Z,19.90
2018-11-01T13:48:09.784Z,19.90
2018-11-01T13:50:38.566Z,20.00
2018-11-01T13:53:07.054Z,20.10
2018-11-01T13:55:35.541Z,21.10
2018-11-01T13:58:04.188Z,21.10
2018-11-01T14:00:33.498Z,21.50
2018-11-01T14:03:02.730Z,21.50
2018-11-01T14:05:31.481Z,21.20
2018-11-01T14:08:00.713Z,21.30
2018-11-01T14:10:29.481Z,21.30
2018-11-01T14:12:58.230Z,20.60
2018-11-01T14:15:27.087Z,20.90
2018-11-01T14:17:55.252Z,21.40
2018-11-01T14:20:23.964Z,23.10
2018-11-01T14:22:52.366Z,23.10
2018-11-01T14:25:20.865Z,23.20
2018-11-01T14:27:50.580Z,23.00
2018-11-01T14:30:18.965Z,23.00
2018-11-01T14:32:48.058Z,22.50
2018-11-01T14:35:16.679Z,22.00
2018-11-01T14:37:45.279Z,21.50
2018-11-01T14:40:14.461Z,21.10
2018-11-01T14:42:42.978Z,21.10
2018-11-01T14:45:13.037Z,20.90
2018-11-01T14:47:41.658Z,21.00
2018-11-01T14:50:10.881Z,21.60
2018-11-01T14:52:42.040Z,21.70
2018-11-01T14:55:11.753Z,21.70
2018-11-01T14:57:41.611Z,21.90
2018-11-01T15:00:09.238Z,21.40
2018-11-01T15:02:37.964Z,22.00
2018-11-01T15:05:07.330Z,22.10
2018-11-01T15:07:35.768Z,21.90
2018-11-01T15:10:05.345Z,19.70
2018-11-01T15:12:34.106Z,19.40
2018-11-01T15:15:03.941Z,19.40
2018-11-01T15:17:32.387Z,19.50
2018-11-01T15:20:01.086Z,19.10
2018-11-01T15:22:29.799Z,19.20
2018-11-01T15:24:58.632Z,19.70
2018-11-01T15:27:27.702Z,19.00
2018-11-01T15:29:56.524Z,16.70
2018-11-01T15:32:26.560Z,16.60
2018-11-01T15:34:55.164Z,15.20
2018-11-01T15:37:24.776Z,15.30
2018-11-01T15:39:54.374Z,15.30
2018-11-01T15:42:23.213Z,15.10
2018-11-01T15:44:52.313Z,14.60
2018-11-01T15:47:21.118Z,13.70
2018-11-01T15:49:50.589Z,13.70
2018-11-01T15:52:22.429Z,13.80
2018-11-01T15:54:51.169Z,13.50
2018-11-01T15:57:20.012Z,13.60
2018-11-01T15:59:49.072Z,13.50
2018-11-01T16:02:17.559Z,12.70
2018-11-01T16:04:46.898Z,12.80
2018-11-01T16:07:15.365Z,12.50
2018-11-01T16:09:44.087Z,12.10
2018-11-01T16:12:12.709Z,12.10
2018-11-01T16:14:41.193Z,12.30
2018-11-01T16:17:09.854Z,12.30
2018-11-01T16:19:38.792Z,12.30
2018-11-01T16:22:08.005Z,12.30
2018-11-01T16:24:36.959Z,12.00
2018-11-01T16:27:05.869Z,11.70
2018-11-01T16:29:34.998Z,11.40
2018-11-01T16:32:04.184Z,11.30
2018-11-01T16:34:33.069Z,11.10
2018-11-01T16:37:01.710Z,11.20
2018-11-01T16:39:31.754Z,11.00
2018-11-01T16:42:00.598Z,10.90
2018-11-01T16:44:29.010Z,10.80
2018-11-01T16:46:57.397Z,10.70
2018-11-01T16:49:26.599Z,10.60
2018-11-01T16:51:55.996Z,10.50
2018-11-01T16:54:24.357Z,10.50
2018-11-01T16:56:53.101Z,10.40
2018-11-01T16:59:21.716Z,10.40
2018-11-01T17:01:50.630Z,10.40
2018-11-01T17:04:19.322Z,10.50
2018-11-01T17:06:49.477Z,10.80
2018-11-01T17:09:17.818Z,10.70
2018-11-01T17:11:46.701Z,10.60
2018-11-01T17:14:15.070Z,10.50
2018-11-01T17:16:43.473Z,10.30
2018-11-01T17:19:11.852Z,10.50
2018-11-01T17:21:40.924Z,10.30
2018-11-01T17:24:09.761Z,10.10
2018-11-01T17:26:38.627Z,10.00
2018-11-01T17:29:07.032Z,10.10
2018-11-01T17:31:35.802Z,10.00
2018-11-01T17:34:04.856Z,9.90
2018-11-01T17:36:33.901Z,9.90
2018-11-01T17:39:03.267Z,9.80
2018-11-01T17:41:31.880Z,9.80
2018-11-01T17:44:01.000Z,9.90
2018-11-01T17:46:29.549Z,10.00
2018-11-01T17:51:26.775Z,10.00
2018-11-01T17:53:56.341Z,10.00
2018-11-01T17:56:25.174Z,10.00
2018-11-01T17:58:54.254Z,10.00
2018-11-01T18:01:23.147Z,10.00
2018-11-01T18:03:53.222Z,10.00
2018-11-01T18:06:21.737Z,10.00
2018-11-01T18:08:50.792Z,10.00
2018-11-01T18:11:20.522Z,10.00
2018-11-01T18:13:49.154Z,10.10
2018-11-01T18:16:17.987Z,10.10
2018-11-01T18:18:47.468Z,10.20
2018-11-01T18:21:16.701Z,10.30
2018-11-01T18:23:45.993Z,10.30
2018-11-01T18:26:14.963Z,10.30
2018-11-01T18:28:43.670Z,10.20
2018-11-01T18:31:13.128Z,10.20
2018-11-01T18:33:41.764Z,10.20
2018-11-01T18:36:11.606Z,10.30
2018-11-01T18:38:40.295Z,10.60
2018-11-01T18:41:09.085Z,10.70
2018-11-01T18:43:37.625Z,10.70
2018-11-01T18:46:06.413Z,10.60
2018-11-01T18:48:34.957Z,10.80
2018-11-01T18:51:03.388Z,10.70
2018-11-01T18:53:32.086Z,10.70
2018-11-01T18:56:00.704Z,10.60
2018-11-01T18:58:29.356Z,10.60
2018-11-01T19:00:57.840Z,10.60
2018-11-01T19:03:31.996Z,10.60
2018-11-01T19:06:01.607Z,10.60
2018-11-01T19:08:30.415Z,10.60
2018-11-01T19:10:59.169Z,10.60
2018-11-01T19:13:28.133Z,10.60
2018-11-01T19:15:56.659Z,10.60
2018-11-01T19:18:25.045Z,10.70
2018-11-01T19:20:53.601Z,10.70
2018-11-01T19:23:22.426Z,10.70
2018-11-01T19:25:51.937Z,10.70
2018-11-01T19:28:20.455Z,10.70
2018-11-01T19:30:48.895Z,10.80
2018-11-01T19:33:18.311Z,10.80
2018-11-01T19:35:47.420Z,10.90
2018-11-01T19:38:16.200Z,10.80
2018-11-01T19:40:44.692Z,10.80
2018-11-01T19:43:13.563Z,10.70
2018-11-01T19:45:42.748Z,10.60
2018-11-01T19:48:11.439Z,10.70
2018-11-01T19:50:40.212Z,10.60
2018-11-01T19:53:08.771Z,10.60
2018-11-01T19:55:38.125Z,10.50
2018-11-01T19:58:06.545Z,10.40
2018-11-01T20:00:35.942Z,10.40
2018-11-01T20:03:05.208Z,10.70
2018-11-01T20:05:34.074Z,10.50
2018-11-01T20:08:03.162Z,10.40
2018-11-01T20:10:31.840Z,10.50
2018-11-01T20:13:01.090Z,10.50
2018-11-01T20:15:29.662Z,10.40
2018-11-01T20:17:58.471Z,10.30
2018-11-01T20:20:26.877Z,10.20
2018-11-01T20:22:56.113Z,10.10
2018-11-01T20:25:24.532Z,10.10
2018-11-01T20:27:53.010Z,10.20
2018-11-01T20:30:21.844Z,10.20
2018-11-01T20:32:50.365Z,10.20
2018-11-01T20:35:19.309Z,10.30
2018-11-01T20:37:48.683Z,10.40
2018-11-01T20:40:17.033Z,10.20
2018-11-01T20:42:45.416Z,10.10
2018-11-01T20:45:14.225Z,10.10
2018-11-01T20:47:43.158Z,10.20
2018-11-01T20:50:12.720Z,10.20
2018-11-01T20:52:41.233Z,10.20
2018-11-01T20:55:11.791Z,10.20
2018-11-01T20:57:40.433Z,10.20
2018-11-01T21:00:11.536Z,10.20
2018-11-01T21:02:40.640Z,10.10
2018-11-01T21:05:09.438Z,10.00
2018-11-01T21:07:37.809Z,10.00
2018-11-01T21:10:08.005Z,10.00
2018-11-01T21:12:37.189Z,9.90
2018-11-01T21:15:08.902Z,9.90
2018-11-01T21:17:37.592Z,9.90
2018-11-01T21:20:06.185Z,9.90
2018-11-01T21:22:36.293Z,9.90
2018-11-01T21:25:05.166Z,9.90
2018-11-01T21:27:33.669Z,9.80
2018-11-01T21:30:02.343Z,9.80
2018-11-01T21:32:31.169Z,9.80
2018-11-01T21:35:00.117Z,9.80
2018-11-01T21:37:28.748Z,9.70
2018-11-01T21:39:58.971Z,9.80
2018-11-01T21:42:27.500Z,9.70
2018-11-01T21:44:55.846Z,9.70
2018-11-01T21:47:24.661Z,9.60
2018-11-01T21:49:53.462Z,9.60
2018-11-01T21:52:22.207Z,9.50
2018-11-01T21:54:50.579Z,9.60
2018-11-01T21:57:19.169Z,9.50
2018-11-01T21:59:48.260Z,9.50
2018-11-01T22:02:16.790Z,9.60
2018-11-01T22:04:45.351Z,9.60
2018-11-01T22:07:14.547Z,9.60
2018-11-01T22:09:43.416Z,9.60
2018-11-01T22:12:12.215Z,9.60
2018-11-01T22:14:40.885Z,9.50
2018-11-01T22:17:09.398Z,9.40
2018-11-01T22:19:38.393Z,9.40
2018-11-01T22:22:07.154Z,9.40
2018-11-01T22:24:36.050Z,9.30
2018-11-01T22:27:05.040Z,9.10
2018-11-01T22:29:33.622Z,9.00
2018-11-01T22:32:02.044Z,8.90
2018-11-01T22:34:31.681Z,8.80
2018-11-01T22:37:00.191Z,8.90
2018-11-01T22:39:28.880Z,8.90
2018-11-01T22:41:57.476Z,8.90
2018-11-01T22:44:25.940Z,8.80
2018-11-01T22:46:54.732Z,8.70
2018-11-01T22:49:24.314Z,8.70
2018-11-01T22:51:53.110Z,8.70
2018-11-01T22:54:21.816Z,8.70
2018-11-01T22:56:50.651Z,8.60
2018-11-01T22:59:19.057Z,8.60
2018-11-01T23:01:47.757Z,8.60
2018-11-01T23:06:44.455Z,8.50
2018-11-01T23:09:12.823Z,8.50
2018-11-01T23:11:41.521Z,8.40
2018-11-01T23:14:10.679Z,8.40
2018-11-01T23:16:39.196Z,8.50
2018-11-01T23:19:07.767Z,8.50
2018-11-01T23:21:36.784Z,8.30
2018-11-01T23:24:05.820Z,8.30
2018-11-01T23:26:34.348Z,8.20
2018-11-01T23:29:03.172Z,8.20
2018-11-01T23:31:31.703Z,8.10
2018-11-01T23:34:01.408Z,8.10
2018-11-01T23:36:35.886Z,8.00
2018-11-01T23:39:13.291Z,8.00
2018-11-01T23:41:48.566Z,8.00
2018-11-01T23:44:23.042Z,8.10
2018-11-01T23:46:57.240Z,8.20
2018-11-01T23:49:28.472Z,8.30
2018-11-01T23:52:03.349Z,8.40
2018-11-01T23:54:31.712Z,8.40
2018-11-01T23:57:00.122Z,8.50
2018-11-01T23:59:29.054Z,8.50
